Portada
METAR-TAF:

METAR-TAF

Aeroports :

Urgench, Uzbekistan

latitud: 41-35N, longitud: 060-38-42E, altitud: 98 m

Observació

L'informe es va fer fa 42 minuts, a les 21:00 UTC
Vent 4 kt del Nord
Temperatura 25°C
Humitat 39%
Pressió 1009 hPa
Visibilitat 10 km o més
sense núvols per sota de 1500 mi sense presència de cumulonimbus.

METAR: UTNU 252100Z 01004KT CAVOK 25/10 Q1009 R31/CLRD70 NOSIG

Hora: 02:42 (21:42 UTC)

Pronòstic

L'informe es va fer fa 4 hores i 42 minuts, a les 17:00 UTC
Pronòstic vàlid del 25 a les 18 UTC al 26 a les 18 UTC
Vent 10 kt del Nord amb ràfegues de 20 kt
Visibilitat: 8000 m
Temporalment
l' 25 a les 18 UTC al 25 a les 24 UTC
Vent 4 kt amb direcció variable

TAF: UTNU 251700Z 2518/2618 35010G20KT 8000 NSC TEMPO 2518/2524 VRB04KT

Observacions i pronòstics meteorològics de més de 4000 aeroports (METAR i TAF).

Les estacions disponibles són els punts grocs i vermells al mapa.

Posi el ratolí al punt desitjat per veure el nom de l'estació.

Feu clic per veure les observacions i els pronòstics meteorològics.

Per canviar el mapa: feu clic els botons verds amb una creu de color negre per apropar; al botó verd amb un guió per allunyar la imatge; o en les fletxes verdes per a mapes adjacents.


METAR-TAF: